sensor_id;sensor_type;location;lat;lon;timestamp;temperature;humidity
40636;DHT22;26642;55.766;37.828;2024-01-30T00:00:13;8.30;85.50
40636;DHT22;26642;55.766;37.828;2024-01-30T00:02:39;8.40;85.60
40636;DHT22;26642;55.766;37.828;2024-01-30T00:05:05;8.40;85.70
40636;DHT22;26642;55.766;37.828;2024-01-30T00:07:31;8.40;85.80
40636;DHT22;26642;55.766;37.828;2024-01-30T00:09:58;8.40;85.80
40636;DHT22;26642;55.766;37.828;2024-01-30T00:12:23;8.30;85.60
40636;DHT22;26642;55.766;37.828;2024-01-30T00:14:49;8.40;85.70
40636;DHT22;26642;55.766;37.828;2024-01-30T00:17:15;8.30;85.50
40636;DHT22;26642;55.766;37.828;2024-01-30T00:19:41;8.40;85.40
40636;DHT22;26642;55.766;37.828;2024-01-30T00:22:07;8.40;85.40
40636;DHT22;26642;55.766;37.828;2024-01-30T00:24:33;8.40;85.40
40636;DHT22;26642;55.766;37.828;2024-01-30T00:26:59;8.40;85.30
40636;DHT22;26642;55.766;37.828;2024-01-30T00:29:25;8.30;85.20
40636;DHT22;26642;55.766;37.828;2024-01-30T00:31:56;8.40;85.30
40636;DHT22;26642;55.766;37.828;2024-01-30T00:38:09;8.40;85.40
40636;DHT22;26642;55.766;37.828;2024-01-30T00:40:35;8.40;85.30
40636;DHT22;26642;55.766;37.828;2024-01-30T00:43:01;8.40;85.30
40636;DHT22;26642;55.766;37.828;2024-01-30T00:45:27;8.40;85.20
40636;DHT22;26642;55.766;37.828;2024-01-30T00:47:53;8.40;85.20
40636;DHT22;26642;55.766;37.828;2024-01-30T00:50:19;8.40;84.90
40636;DHT22;26642;55.766;37.828;2024-01-30T00:52:45;8.40;85.00
40636;DHT22;26642;55.766;37.828;2024-01-30T00:55:11;8.40;85.00
40636;DHT22;26642;55.766;37.828;2024-01-30T00:57:38;8.40;85.10
40636;DHT22;26642;55.766;37.828;2024-01-30T01:00:05;8.40;85.20
40636;DHT22;26642;55.766;37.828;2024-01-30T01:02:34;8.40;85.20
40636;DHT22;26642;55.766;37.828;2024-01-30T01:05:01;8.40;85.20
40636;DHT22;26642;55.766;37.828;2024-01-30T01:07:27;8.40;85.00
40636;DHT22;26642;55.766;37.828;2024-01-30T01:09:53;8.40;85.10
40636;DHT22;26642;55.766;37.828;2024-01-30T01:12:19;8.40;85.30
40636;DHT22;26642;55.766;37.828;2024-01-30T01:14:45;8.40;85.40
40636;DHT22;26642;55.766;37.828;2024-01-30T01:17:12;8.40;85.40
40636;DHT22;26642;55.766;37.828;2024-01-30T01:19:38;8.40;85.50
40636;DHT22;26642;55.766;37.828;2024-01-30T01:22:04;8.40;85.60
40636;DHT22;26642;55.766;37.828;2024-01-30T01:24:33;8.40;85.60
40636;DHT22;26642;55.766;37.828;2024-01-30T01:26:59;8.40;85.60
40636;DHT22;26642;55.766;37.828;2024-01-30T01:29:26;8.40;85.60
40636;DHT22;26642;55.766;37.828;2024-01-30T01:31:55;8.40;85.50
40636;DHT22;26642;55.766;37.828;2024-01-30T01:34:22;8.40;85.70
40636;DHT22;26642;55.766;37.828;2024-01-30T01:36:49;8.40;85.40
40636;DHT22;26642;55.766;37.828;2024-01-30T01:39:15;8.40;85.40
40636;DHT22;26642;55.766;37.828;2024-01-30T01:41:42;8.40;85.60
40636;DHT22;26642;55.766;37.828;2024-01-30T01:44:08;8.40;85.80
40636;DHT22;26642;55.766;37.828;2024-01-30T01:46:34;8.40;85.60
40636;DHT22;26642;55.766;37.828;2024-01-30T01:49:02;8.40;85.50
40636;DHT22;26642;55.766;37.828;2024-01-30T01:51:31;8.40;85.40
40636;DHT22;26642;55.766;37.828;2024-01-30T01:53:58;8.40;85.60
40636;DHT22;26642;55.766;37.828;2024-01-30T01:56:27;8.40;85.60
40636;DHT22;26642;55.766;37.828;2024-01-30T01:58:55;8.40;86.20
40636;DHT22;26642;55.766;37.828;2024-01-30T02:01:21;8.40;85.60
40636;DHT22;26642;55.766;37.828;2024-01-30T02:03:49;8.50;85.60
40636;DHT22;26642;55.766;37.828;2024-01-30T02:06:15;8.40;85.60
40636;DHT22;26642;55.766;37.828;2024-01-30T02:08:42;8.50;85.80
40636;DHT22;26642;55.766;37.828;2024-01-30T02:11:08;8.50;85.50
40636;DHT22;26642;55.766;37.828;2024-01-30T02:13:36;8.40;85.40
40636;DHT22;26642;55.766;37.828;2024-01-30T02:16:02;8.50;85.30
40636;DHT22;26642;55.766;37.828;2024-01-30T02:18:28;8.50;85.40
40636;DHT22;26642;55.766;37.828;2024-01-30T02:21:16;8.50;85.30
40636;DHT22;26642;55.766;37.828;2024-01-30T02:23:43;8.50;85.50
40636;DHT22;26642;55.766;37.828;2024-01-30T02:26:10;8.50;85.40
40636;DHT22;26642;55.766;37.828;2024-01-30T02:28:37;8.50;85.30
40636;DHT22;26642;55.766;37.828;2024-01-30T02:31:04;8.50;85.60
40636;DHT22;26642;55.766;37.828;2024-01-30T02:33:30;8.50;85.40
40636;DHT22;26642;55.766;37.828;2024-01-30T02:35:56;8.50;85.40
40636;DHT22;26642;55.766;37.828;2024-01-30T02:38:22;8.50;85.40
40636;DHT22;26642;55.766;37.828;2024-01-30T02:40:49;8.50;85.60
40636;DHT22;26642;55.766;37.828;2024-01-30T02:43:16;8.50;85.60
40636;DHT22;26642;55.766;37.828;2024-01-30T02:45:42;8.50;85.40
40636;DHT22;26642;55.766;37.828;2024-01-30T02:48:08;8.50;85.30
40636;DHT22;26642;55.766;37.828;2024-01-30T02:50:34;8.50;85.30
40636;DHT22;26642;55.766;37.828;2024-01-30T02:53:00;8.50;85.30
40636;DHT22;26642;55.766;37.828;2024-01-30T02:55:26;8.50;85.40
40636;DHT22;26642;55.766;37.828;2024-01-30T02:57:52;8.50;85.20
40636;DHT22;26642;55.766;37.828;2024-01-30T03:00:19;8.50;85.30
40636;DHT22;26642;55.766;37.828;2024-01-30T03:02:45;8.50;85.20
40636;DHT22;26642;55.766;37.828;2024-01-30T03:05:11;8.50;85.10
40636;DHT22;26642;55.766;37.828;2024-01-30T03:07:37;8.50;85.20
40636;DHT22;26642;55.766;37.828;2024-01-30T03:10:07;8.50;85.20
40636;DHT22;26642;55.766;37.828;2024-01-30T03:12:33;8.50;85.20
40636;DHT22;26642;55.766;37.828;2024-01-30T03:14:59;8.50;85.10
40636;DHT22;26642;55.766;37.828;2024-01-30T03:17:25;8.50;85.20
40636;DHT22;26642;55.766;37.828;2024-01-30T03:19:51;8.50;85.20
40636;DHT22;26642;55.766;37.828;2024-01-30T03:22:17;8.60;85.20
40636;DHT22;26642;55.766;37.828;2024-01-30T03:24:43;8.60;85.40
40636;DHT22;26642;55.766;37.828;2024-01-30T03:27:09;8.60;85.30
40636;DHT22;26642;55.766;37.828;2024-01-30T03:29:35;8.60;85.60
40636;DHT22;26642;55.766;37.828;2024-01-30T03:32:01;8.50;85.60
40636;DHT22;26642;55.766;37.828;2024-01-30T03:34:29;8.60;85.60
40636;DHT22;26642;55.766;37.828;2024-01-30T03:36:55;8.60;85.50
40636;DHT22;26642;55.766;37.828;2024-01-30T03:39:21;8.60;85.50
40636;DHT22;26642;55.766;37.828;2024-01-30T03:41:47;8.60;85.60
40636;DHT22;26642;55.766;37.828;2024-01-30T03:44:13;8.60;85.70
40636;DHT22;26642;55.766;37.828;2024-01-30T03:46:39;8.60;85.70
40636;DHT22;26642;55.766;37.828;2024-01-30T03:49:05;8.60;85.60
40636;DHT22;26642;55.766;37.828;2024-01-30T03:51:31;8.60;85.70
40636;DHT22;26642;55.766;37.828;2024-01-30T03:53:57;8.60;85.80
40636;DHT22;26642;55.766;37.828;2024-01-30T03:56:23;8.60;85.90
40636;DHT22;26642;55.766;37.828;2024-01-30T03:58:51;8.60;85.80
40636;DHT22;26642;55.766;37.828;2024-01-30T04:01:17;8.60;85.90
40636;DHT22;26642;55.766;37.828;2024-01-30T04:03:44;8.60;86.00
40636;DHT22;26642;55.766;37.828;2024-01-30T04:06:10;8.70;86.10
40636;DHT22;26642;55.766;37.828;2024-01-30T04:08:37;8.70;86.40
40636;DHT22;26642;55.766;37.828;2024-01-30T04:11:04;8.70;86.30
40636;DHT22;26642;55.766;37.828;2024-01-30T04:13:34;8.70;86.40
40636;DHT22;26642;55.766;37.828;2024-01-30T04:16:01;8.70;86.40
40636;DHT22;26642;55.766;37.828;2024-01-30T04:18:28;8.70;86.60
40636;DHT22;26642;55.766;37.828;2024-01-30T04:20:54;8.70;86.60
40636;DHT22;26642;55.766;37.828;2024-01-30T04:23:20;8.70;86.50
40636;DHT22;26642;55.766;37.828;2024-01-30T04:25:46;8.70;86.60
40636;DHT22;26642;55.766;37.828;2024-01-30T04:28:13;8.70;86.50
40636;DHT22;26642;55.766;37.828;2024-01-30T04:30:39;8.70;86.80
40636;DHT22;26642;55.766;37.828;2024-01-30T04:33:05;8.70;86.80
40636;DHT22;26642;55.766;37.828;2024-01-30T04:35:31;8.70;86.60
40636;DHT22;26642;55.766;37.828;2024-01-30T04:37:57;8.70;86.60
40636;DHT22;26642;55.766;37.828;2024-01-30T04:40:23;8.70;86.50
40636;DHT22;26642;55.766;37.828;2024-01-30T04:42:49;8.70;86.50
40636;DHT22;26642;55.766;37.828;2024-01-30T04:45:15;8.70;86.50
40636;DHT22;26642;55.766;37.828;2024-01-30T04:47:41;8.70;86.40
40636;DHT22;26642;55.766;37.828;2024-01-30T04:50:08;8.70;86.40
40636;DHT22;26642;55.766;37.828;2024-01-30T04:52:34;8.70;86.40
40636;DHT22;26642;55.766;37.828;2024-01-30T04:55:00;8.70;86.10
40636;DHT22;26642;55.766;37.828;2024-01-30T04:57:26;8.70;86.00
40636;DHT22;26642;55.766;37.828;2024-01-30T04:59:53;8.70;85.70
40636;DHT22;26642;55.766;37.828;2024-01-30T05:02:19;8.70;85.70
40636;DHT22;26642;55.766;37.828;2024-01-30T05:04:45;8.70;85.40
40636;DHT22;26642;55.766;37.828;2024-01-30T05:07:11;8.80;85.60
40636;DHT22;26642;55.766;37.828;2024-01-30T05:09:37;8.80;86.20
40636;DHT22;26642;55.766;37.828;2024-01-30T05:12:03;8.80;86.40
40636;DHT22;26642;55.766;37.828;2024-01-30T05:14:29;8.80;86.70
40636;DHT22;26642;55.766;37.828;2024-01-30T05:16:55;8.80;86.80
40636;DHT22;26642;55.766;37.828;2024-01-30T05:19:21;8.80;86.90
40636;DHT22;26642;55.766;37.828;2024-01-30T05:21:49;8.80;87.00
40636;DHT22;26642;55.766;37.828;2024-01-30T05:24:15;8.80;87.00
40636;DHT22;26642;55.766;37.828;2024-01-30T05:26:41;8.80;87.10
40636;DHT22;26642;55.766;37.828;2024-01-30T05:29:07;8.80;87.20
40636;DHT22;26642;55.766;37.828;2024-01-30T05:31:34;8.80;87.20
40636;DHT22;26642;55.766;37.828;2024-01-30T05:34:00;8.80;87.10
40636;DHT22;26642;55.766;37.828;2024-01-30T05:36:26;8.80;87.00
40636;DHT22;26642;55.766;37.828;2024-01-30T05:38:53;8.80;87.00
40636;DHT22;26642;55.766;37.828;2024-01-30T05:41:19;8.80;86.90
40636;DHT22;26642;55.766;37.828;2024-01-30T05:43:46;8.80;86.90
40636;DHT22;26642;55.766;37.828;2024-01-30T05:46:13;8.80;86.70
40636;DHT22;26642;55.766;37.828;2024-01-30T05:48:39;8.80;86.70
40636;DHT22;26642;55.766;37.828;2024-01-30T05:51:07;8.80;86.70
40636;DHT22;26642;55.766;37.828;2024-01-30T05:53:34;8.80;86.70
40636;DHT22;26642;55.766;37.828;2024-01-30T05:56:03;8.80;86.60
40636;DHT22;26642;55.766;37.828;2024-01-30T05:58:30;8.90;86.60
40636;DHT22;26642;55.766;37.828;2024-01-30T06:00:57;8.80;86.50
40636;DHT22;26642;55.766;37.828;2024-01-30T06:03:23;8.80;86.50
40636;DHT22;26642;55.766;37.828;2024-01-30T06:05:49;8.80;86.50
40636;DHT22;26642;55.766;37.828;2024-01-30T06:08:15;8.80;86.30
40636;DHT22;26642;55.766;37.828;2024-01-30T06:10:41;8.80;86.30
40636;DHT22;26642;55.766;37.828;2024-01-30T06:13:07;8.90;86.40
40636;DHT22;26642;55.766;37.828;2024-01-30T06:15:33;8.80;86.10
40636;DHT22;26642;55.766;37.828;2024-01-30T06:17:59;8.90;85.80
40636;DHT22;26642;55.766;37.828;2024-01-30T06:20:25;8.90;85.70
40636;DHT22;26642;55.766;37.828;2024-01-30T06:22:51;8.90;85.40
40636;DHT22;26642;55.766;37.828;2024-01-30T06:25:17;8.90;85.40
40636;DHT22;26642;55.766;37.828;2024-01-30T06:27:43;8.90;85.20
40636;DHT22;26642;55.766;37.828;2024-01-30T06:30:10;8.90;85.10
40636;DHT22;26642;55.766;37.828;2024-01-30T06:32:36;8.90;84.50
40636;DHT22;26642;55.766;37.828;2024-01-30T06:35:02;8.90;84.80
40636;DHT22;26642;55.766;37.828;2024-01-30T06:37:29;8.90;84.80
40636;DHT22;26642;55.766;37.828;2024-01-30T06:39:55;9.00;86.60
40636;DHT22;26642;55.766;37.828;2024-01-30T06:42:21;9.00;87.10
40636;DHT22;26642;55.766;37.828;2024-01-30T06:44:47;9.00;87.50
40636;DHT22;26642;55.766;37.828;2024-01-30T06:47:13;9.00;87.40
40636;DHT22;26642;55.766;37.828;2024-01-30T06:49:39;9.00;87.40
40636;DHT22;26642;55.766;37.828;2024-01-30T06:52:08;9.00;87.50
40636;DHT22;26642;55.766;37.828;2024-01-30T06:54:34;9.00;87.30
40636;DHT22;26642;55.766;37.828;2024-01-30T06:57:00;9.00;87.40
40636;DHT22;26642;55.766;37.828;2024-01-30T06:59:26;9.00;87.30
40636;DHT22;26642;55.766;37.828;2024-01-30T07:01:52;9.00;87.40
40636;DHT22;26642;55.766;37.828;2024-01-30T07:04:18;9.10;87.70
40636;DHT22;26642;55.766;37.828;2024-01-30T07:06:44;9.10;87.40
40636;DHT22;26642;55.766;37.828;2024-01-30T07:09:11;9.10;87.60
40636;DHT22;26642;55.766;37.828;2024-01-30T07:11:37;9.10;87.30
40636;DHT22;26642;55.766;37.828;2024-01-30T07:14:03;9.10;87.50
40636;DHT22;26642;55.766;37.828;2024-01-30T07:16:30;9.10;87.60
40636;DHT22;26642;55.766;37.828;2024-01-30T07:18:56;9.10;87.70
40636;DHT22;26642;55.766;37.828;2024-01-30T07:21:22;9.10;87.70
40636;DHT22;26642;55.766;37.828;2024-01-30T07:23:54;9.10;87.50
40636;DHT22;26642;55.766;37.828;2024-01-30T07:26:20;9.20;87.60
40636;DHT22;26642;55.766;37.828;2024-01-30T07:28:46;9.20;87.60
40636;DHT22;26642;55.766;37.828;2024-01-30T07:31:12;9.20;87.50
40636;DHT22;26642;55.766;37.828;2024-01-30T07:33:38;9.20;87.50
40636;DHT22;26642;55.766;37.828;2024-01-30T07:36:05;9.20;87.60
40636;DHT22;26642;55.766;37.828;2024-01-30T07:38:34;9.20;87.30
40636;DHT22;26642;55.766;37.828;2024-01-30T07:41:00;9.20;87.50
40636;DHT22;26642;55.766;37.828;2024-01-30T07:43:26;9.20;87.30
40636;DHT22;26642;55.766;37.828;2024-01-30T07:45:52;9.30;87.60
40636;DHT22;26642;55.766;37.828;2024-01-30T07:48:18;9.20;87.50
40636;DHT22;26642;55.766;37.828;2024-01-30T07:50:44;9.30;87.50
40636;DHT22;26642;55.766;37.828;2024-01-30T07:53:10;9.30;87.60
40636;DHT22;26642;55.766;37.828;2024-01-30T07:56:12;9.30;87.60
40636;DHT22;26642;55.766;37.828;2024-01-30T07:58:39;9.30;87.50
40636;DHT22;26642;55.766;37.828;2024-01-30T08:01:05;9.30;87.40
40636;DHT22;26642;55.766;37.828;2024-01-30T08:03:31;9.30;87.30
40636;DHT22;26642;55.766;37.828;2024-01-30T08:05:57;9.40;87.20
40636;DHT22;26642;55.766;37.828;2024-01-30T08:08:23;9.40;87.20
40636;DHT22;26642;55.766;37.828;2024-01-30T08:10:49;9.40;87.10
40636;DHT22;26642;55.766;37.828;2024-01-30T08:13:15;9.40;86.90
40636;DHT22;26642;55.766;37.828;2024-01-30T08:15:41;9.40;86.80
40636;DHT22;26642;55.766;37.828;2024-01-30T08:18:26;9.40;87.00
40636;DHT22;26642;55.766;37.828;2024-01-30T08:20:52;9.40;86.60
40636;DHT22;26642;55.766;37.828;2024-01-30T08:23:18;9.40;86.60
40636;DHT22;26642;55.766;37.828;2024-01-30T08:25:44;9.40;86.70
40636;DHT22;26642;55.766;37.828;2024-01-30T08:28:11;9.40;86.60
40636;DHT22;26642;55.766;37.828;2024-01-30T08:30:37;9.40;86.70
40636;DHT22;26642;55.766;37.828;2024-01-30T08:33:04;9.50;86.70
40636;DHT22;26642;55.766;37.828;2024-01-30T08:35:30;9.40;86.50
40636;DHT22;26642;55.766;37.828;2024-01-30T08:37:59;9.40;86.40
40636;DHT22;26642;55.766;37.828;2024-01-30T08:40:25;9.50;86.20
40636;DHT22;26642;55.766;37.828;2024-01-30T08:42:51;9.50;86.10
40636;DHT22;26642;55.766;37.828;2024-01-30T08:45:17;9.50;86.10
40636;DHT22;26642;55.766;37.828;2024-01-30T08:47:43;9.50;85.90
40636;DHT22;26642;55.766;37.828;2024-01-30T08:50:09;9.50;85.90
40636;DHT22;26642;55.766;37.828;2024-01-30T08:52:35;9.50;85.70
40636;DHT22;26642;55.766;37.828;2024-01-30T08:55:01;9.50;85.70
40636;DHT22;26642;55.766;37.828;2024-01-30T08:57:27;9.50;85.80
40636;DHT22;26642;55.766;37.828;2024-01-30T08:59:54;9.50;85.80
40636;DHT22;26642;55.766;37.828;2024-01-30T09:02:21;9.50;85.70
40636;DHT22;26642;55.766;37.828;2024-01-30T09:04:47;9.60;85.70
40636;DHT22;26642;55.766;37.828;2024-01-30T09:07:13;9.60;85.50
40636;DHT22;26642;55.766;37.828;2024-01-30T09:09:39;9.60;85.60
40636;DHT22;26642;55.766;37.828;2024-01-30T09:12:07;9.60;85.70
40636;DHT22;26642;55.766;37.828;2024-01-30T09:14:38;9.60;85.80
40636;DHT22;26642;55.766;37.828;2024-01-30T09:17:04;9.60;85.70
40636;DHT22;26642;55.766;37.828;2024-01-30T09:19:30;9.60;85.70
40636;DHT22;26642;55.766;37.828;2024-01-30T09:21:57;9.60;85.80
40636;DHT22;26642;55.766;37.828;2024-01-30T09:24:22;9.70;85.70
40636;DHT22;26642;55.766;37.828;2024-01-30T09:26:49;9.70;85.60
40636;DHT22;26642;55.766;37.828;2024-01-30T09:29:19;9.70;85.70
40636;DHT22;26642;55.766;37.828;2024-01-30T09:31:45;9.70;85.70
40636;DHT22;26642;55.766;37.828;2024-01-30T09:34:12;9.70;85.80
40636;DHT22;26642;55.766;37.828;2024-01-30T09:36:39;9.70;85.80
40636;DHT22;26642;55.766;37.828;2024-01-30T09:39:05;9.70;85.70
40636;DHT22;26642;55.766;37.828;2024-01-30T09:41:33;9.70;85.70
40636;DHT22;26642;55.766;37.828;2024-01-30T09:44:01;9.70;85.80
40636;DHT22;26642;55.766;37.828;2024-01-30T09:46:28;9.70;85.90
40636;DHT22;26642;55.766;37.828;2024-01-30T09:48:57;9.70;85.90
40636;DHT22;26642;55.766;37.828;2024-01-30T09:51:24;9.70;85.60
40636;DHT22;26642;55.766;37.828;2024-01-30T09:53:51;9.70;85.60
40636;DHT22;26642;55.766;37.828;2024-01-30T09:56:17;9.80;85.70
40636;DHT22;26642;55.766;37.828;2024-01-30T09:58:44;9.80;85.70
40636;DHT22;26642;55.766;37.828;2024-01-30T10:01:10;9.80;85.70
40636;DHT22;26642;55.766;37.828;2024-01-30T10:03:36;9.80;85.50
40636;DHT22;26642;55.766;37.828;2024-01-30T10:06:02;9.80;85.40
40636;DHT22;26642;55.766;37.828;2024-01-30T10:08:28;9.70;85.20
40636;DHT22;26642;55.766;37.828;2024-01-30T10:10:55;9.80;85.20
40636;DHT22;26642;55.766;37.828;2024-01-30T10:13:21;9.80;85.20
40636;DHT22;26642;55.766;37.828;2024-01-30T10:15:47;9.80;85.30
40636;DHT22;26642;55.766;37.828;2024-01-30T10:18:14;9.80;85.30
40636;DHT22;26642;55.766;37.828;2024-01-30T10:20:40;9.80;85.20
40636;DHT22;26642;55.766;37.828;2024-01-30T10:23:06;9.80;85.00
40636;DHT22;26642;55.766;37.828;2024-01-30T10:25:32;9.80;85.00
40636;DHT22;26642;55.766;37.828;2024-01-30T10:27:59;9.80;85.20
40636;DHT22;26642;55.766;37.828;2024-01-30T10:30:25;9.80;85.10
40636;DHT22;26642;55.766;37.828;2024-01-30T10:32:51;9.80;85.00
40636;DHT22;26642;55.766;37.828;2024-01-30T10:35:17;9.90;85.10
40636;DHT22;26642;55.766;37.828;2024-01-30T10:37:43;9.90;85.10
40636;DHT22;26642;55.766;37.828;2024-01-30T10:40:13;9.90;85.00
40636;DHT22;26642;55.766;37.828;2024-01-30T10:42:43;9.90;85.00
40636;DHT22;26642;55.766;37.828;2024-01-30T10:47:48;9.90;85.10
40636;DHT22;26642;55.766;37.828;2024-01-30T10:50:14;9.90;84.90
40636;DHT22;26642;55.766;37.828;2024-01-30T10:52:42;9.90;84.90
40636;DHT22;26642;55.766;37.828;2024-01-30T10:55:10;9.90;84.80
40636;DHT22;26642;55.766;37.828;2024-01-30T10:57:36;9.90;84.80
40636;DHT22;26642;55.766;37.828;2024-01-30T11:00:06;9.90;84.80
40636;DHT22;26642;55.766;37.828;2024-01-30T11:02:40;9.90;84.90
40636;DHT22;26642;55.766;37.828;2024-01-30T11:05:08;9.90;84.80
40636;DHT22;26642;55.766;37.828;2024-01-30T11:07:34;10.00;84.80
40636;DHT22;26642;55.766;37.828;2024-01-30T11:10:01;10.00;84.80
40636;DHT22;26642;55.766;37.828;2024-01-30T11:12:28;10.00;84.80
40636;DHT22;26642;55.766;37.828;2024-01-30T11:15:13;10.00;84.80
40636;DHT22;26642;55.766;37.828;2024-01-30T11:17:59;10.00;84.60
40636;DHT22;26642;55.766;37.828;2024-01-30T11:20:29;10.00;84.60
40636;DHT22;26642;55.766;37.828;2024-01-30T11:22:57;10.00;84.50
40636;DHT22;26642;55.766;37.828;2024-01-30T11:25:24;10.00;84.40
40636;DHT22;26642;55.766;37.828;2024-01-30T11:27:55;10.00;84.40
40636;DHT22;26642;55.766;37.828;2024-01-30T11:30:31;10.00;84.20
40636;DHT22;26642;55.766;37.828;2024-01-30T11:33:11;10.00;84.20
40636;DHT22;26642;55.766;37.828;2024-01-30T11:35:45;10.00;84.20
40636;DHT22;26642;55.766;37.828;2024-01-30T11:38:14;10.10;84.40
40636;DHT22;26642;55.766;37.828;2024-01-30T11:40:40;10.00;84.20
40636;DHT22;26642;55.766;37.828;2024-01-30T11:43:08;10.10;84.20
40636;DHT22;26642;55.766;37.828;2024-01-30T11:45:35;10.10;84.20
40636;DHT22;26642;55.766;37.828;2024-01-30T11:48:02;10.10;84.40
40636;DHT22;26642;55.766;37.828;2024-01-30T11:50:33;10.10;84.30
40636;DHT22;26642;55.766;37.828;2024-01-30T11:53:00;10.10;84.30
40636;DHT22;26642;55.766;37.828;2024-01-30T11:55:30;10.10;84.40
40636;DHT22;26642;55.766;37.828;2024-01-30T11:57:59;10.10;84.30
40636;DHT22;26642;55.766;37.828;2024-01-30T12:00:25;10.10;84.20
40636;DHT22;26642;55.766;37.828;2024-01-30T12:02:54;10.10;84.20
40636;DHT22;26642;55.766;37.828;2024-01-30T12:05:24;10.10;84.20
40636;DHT22;26642;55.766;37.828;2024-01-30T12:07:50;10.10;84.00
40636;DHT22;26642;55.766;37.828;2024-01-30T12:10:16;10.00;84.00
40636;DHT22;26642;55.766;37.828;2024-01-30T12:12:46;10.10;84.30
40636;DHT22;26642;55.766;37.828;2024-01-30T12:15:13;10.10;84.20
40636;DHT22;26642;55.766;37.828;2024-01-30T12:17:39;10.00;84.10
40636;DHT22;26642;55.766;37.828;2024-01-30T12:20:10;10.10;84.10
40636;DHT22;26642;55.766;37.828;2024-01-30T12:22:38;10.10;84.10
40636;DHT22;26642;55.766;37.828;2024-01-30T12:25:07;10.10;84.00
40636;DHT22;26642;55.766;37.828;2024-01-30T12:27:34;10.10;83.80
40636;DHT22;26642;55.766;37.828;2024-01-30T12:30:00;10.10;83.70
40636;DHT22;26642;55.766;37.828;2024-01-30T12:32:27;10.10;83.60
40636;DHT22;26642;55.766;37.828;2024-01-30T12:34:56;10.00;83.30
40636;DHT22;26642;55.766;37.828;2024-01-30T12:37:23;10.10;83.30
40636;DHT22;26642;55.766;37.828;2024-01-30T12:39:51;10.10;83.10
40636;DHT22;26642;55.766;37.828;2024-01-30T12:42:20;10.10;83.30
40636;DHT22;26642;55.766;37.828;2024-01-30T12:44:48;10.00;83.60
40636;DHT22;26642;55.766;37.828;2024-01-30T12:47:14;10.00;83.10
40636;DHT22;26642;55.766;37.828;2024-01-30T12:49:43;10.10;83.10
40636;DHT22;26642;55.766;37.828;2024-01-30T12:52:11;10.00;83.20
40636;DHT22;26642;55.766;37.828;2024-01-30T12:54:38;10.00;83.10
40636;DHT22;26642;55.766;37.828;2024-01-30T12:57:05;10.00;83.00
40636;DHT22;26642;55.766;37.828;2024-01-30T12:59:31;10.00;82.90
40636;DHT22;26642;55.766;37.828;2024-01-30T13:01:58;10.10;82.90
40636;DHT22;26642;55.766;37.828;2024-01-30T13:04:24;10.10;82.90
40636;DHT22;26642;55.766;37.828;2024-01-30T13:06:50;10.00;82.80
40636;DHT22;26642;55.766;37.828;2024-01-30T13:09:16;10.00;82.90
40636;DHT22;26642;55.766;37.828;2024-01-30T13:11:42;10.00;82.90
40636;DHT22;26642;55.766;37.828;2024-01-30T13:14:08;10.00;82.90
40636;DHT22;26642;55.766;37.828;2024-01-30T13:16:34;10.00;82.90
40636;DHT22;26642;55.766;37.828;2024-01-30T13:19:00;10.00;82.80
40636;DHT22;26642;55.766;37.828;2024-01-30T13:21:28;10.00;82.90
40636;DHT22;26642;55.766;37.828;2024-01-30T13:23:54;10.00;83.00
40636;DHT22;26642;55.766;37.828;2024-01-30T13:26:20;10.00;82.90
40636;DHT22;26642;55.766;37.828;2024-01-30T13:28:47;10.00;82.60
40636;DHT22;26642;55.766;37.828;2024-01-30T13:31:14;10.00;82.80
40636;DHT22;26642;55.766;37.828;2024-01-30T13:33:41;10.00;82.80
40636;DHT22;26642;55.766;37.828;2024-01-30T13:36:08;10.00;82.70
40636;DHT22;26642;55.766;37.828;2024-01-30T13:38:34;10.00;82.70
40636;DHT22;26642;55.766;37.828;2024-01-30T13:41:00;10.00;82.70
40636;DHT22;26642;55.766;37.828;2024-01-30T13:43:26;10.00;82.70
40636;DHT22;26642;55.766;37.828;2024-01-30T13:45:52;10.00;82.60
40636;DHT22;26642;55.766;37.828;2024-01-30T13:48:19;10.00;82.80
40636;DHT22;26642;55.766;37.828;2024-01-30T13:50:45;10.00;83.30
40636;DHT22;26642;55.766;37.828;2024-01-30T13:53:11;10.00;83.50
40636;DHT22;26642;55.766;37.828;2024-01-30T13:55:38;9.90;83.60
40636;DHT22;26642;55.766;37.828;2024-01-30T13:58:05;10.00;83.60
40636;DHT22;26642;55.766;37.828;2024-01-30T14:00:32;9.90;83.80
40636;DHT22;26642;55.766;37.828;2024-01-30T14:02:59;9.90;83.80
40636;DHT22;26642;55.766;37.828;2024-01-30T14:05:26;10.00;83.60
40636;DHT22;26642;55.766;37.828;2024-01-30T14:07:54;9.90;83.80
40636;DHT22;26642;55.766;37.828;2024-01-30T14:10:20;9.90;83.70
40636;DHT22;26642;55.766;37.828;2024-01-30T14:12:46;9.90;83.40
40636;DHT22;26642;55.766;37.828;2024-01-30T14:15:14;9.90;83.40
40636;DHT22;26642;55.766;37.828;2024-01-30T14:17:47;9.90;83.40
40636;DHT22;26642;55.766;37.828;2024-01-30T14:20:15;9.90;83.40
40636;DHT22;26642;55.766;37.828;2024-01-30T14:22:45;9.90;83.50
40636;DHT22;26642;55.766;37.828;2024-01-30T14:25:11;9.90;83.70
40636;DHT22;26642;55.766;37.828;2024-01-30T14:27:38;9.90;83.50
40636;DHT22;26642;55.766;37.828;2024-01-30T14:30:04;9.90;83.60
40636;DHT22;26642;55.766;37.828;2024-01-30T14:32:32;9.90;83.70
40636;DHT22;26642;55.766;37.828;2024-01-30T14:34:58;9.90;83.70
40636;DHT22;26642;55.766;37.828;2024-01-30T14:37:24;9.90;83.90
40636;DHT22;26642;55.766;37.828;2024-01-30T14:39:50;9.90;84.00
40636;DHT22;26642;55.766;37.828;2024-01-30T14:42:16;9.90;83.90
40636;DHT22;26642;55.766;37.828;2024-01-30T14:44:43;9.80;83.90
40636;DHT22;26642;55.766;37.828;2024-01-30T14:47:09;9.80;84.00
40636;DHT22;26642;55.766;37.828;2024-01-30T14:49:35;9.80;83.90
40636;DHT22;26642;55.766;37.828;2024-01-30T14:52:01;9.80;84.20
40636;DHT22;26642;55.766;37.828;2024-01-30T14:54:30;9.80;84.20
40636;DHT22;26642;55.766;37.828;2024-01-30T14:56:56;9.80;84.20
40636;DHT22;26642;55.766;37.828;2024-01-30T14:59:22;9.80;84.10
40636;DHT22;26642;55.766;37.828;2024-01-30T15:01:48;9.80;84.10
40636;DHT22;26642;55.766;37.828;2024-01-30T15:04:14;9.80;84.10
40636;DHT22;26642;55.766;37.828;2024-01-30T15:06:43;9.80;84.20
40636;DHT22;26642;55.766;37.828;2024-01-30T15:09:12;9.80;84.10
40636;DHT22;26642;55.766;37.828;2024-01-30T15:11:41;9.80;84.30
40636;DHT22;26642;55.766;37.828;2024-01-30T15:14:07;9.70;84.20
40636;DHT22;26642;55.766;37.828;2024-01-30T15:16:33;9.80;84.20
40636;DHT22;26642;55.766;37.828;2024-01-30T15:19:00;9.70;84.40
40636;DHT22;26642;55.766;37.828;2024-01-30T15:21:26;9.70;84.40
40636;DHT22;26642;55.766;37.828;2024-01-30T15:23:52;9.80;84.40
40636;DHT22;26642;55.766;37.828;2024-01-30T15:26:18;9.80;84.40
40636;DHT22;26642;55.766;37.828;2024-01-30T15:28:45;9.70;84.20
40636;DHT22;26642;55.766;37.828;2024-01-30T15:31:11;9.80;84.10